Uvalde Research's Hourly Summary for Tuesday, February 14, 2017
Hour Temp
(f)
RH
(%)
Solar Rad.
(MJ/m2)
Rainfall
(in)
Wind
(mph)
2/14/2017 12:00 AM 59 86 0 0 1.82
2/14/2017 1:00 AM 56 85 0 0 2.31
2/14/2017 2:00 AM 55 91 0 0 1.2
2/14/2017 3:00 AM 52 93 0 0.19 3.54
2/14/2017 4:00 AM 52 98 0 0.23 2.69
2/14/2017 5:00 AM 51 98 0 0.05 3.04
2/14/2017 6:00 AM 50 98 0 0.02 3.02
2/14/2017 7:00 AM 49 96 0 0.01 3.08
2/14/2017 8:00 AM 47 93 0.04 0 3.14
2/14/2017 9:00 AM 48 89 0.49 0 3.52
2/14/2017 10:00 AM 50 84 0.62 0 3.19
2/14/2017 11:00 AM 54 76 1.7 0 4.07
2/14/2017 12:00 PM 56 70 1.94 0 3.9
2/14/2017 1:00 PM 58 65 2.17 0 4.38
2/14/2017 2:00 PM 59 62 1.51 0 3.83
2/14/2017 3:00 PM 58 62 0.93 0 4.1
2/14/2017 4:00 PM 58 63 0.5 0 2.13
2/14/2017 5:00 PM 60 57 0.38 0 3.24
2/14/2017 6:00 PM 60 52 0.21 0 4.02
2/14/2017 7:00 PM 58 52 0.01 0 4.41
2/14/2017 8:00 PM 56 57 0 0 3.1
2/14/2017 9:00 PM 54 57 0 0 5.07
2/14/2017 10:00 PM 52 57 0 0 4.96
2/14/2017 11:00 PM 52 58 0 0 4.56
Data Summary 54 74 10.50 0.50 3.43